Time;durP1;ratioP1;P1;durP2;ratioP2;P2;SDS_P1;SDS_P2;PMS_P1;PMS_P2;Temp;Humidity;BMP_temperature;BMP_pressure;BME280_temperature;BME280_humidity;BME280_pressure;Samples;Min_cycle;Max_cycle;Signal;HPM_P1;HPM_P2
2022/07/20 00:01:20;;;;;;;3.25;1.85;;;;;;;28.98;27.47;99713.97;5092253;28;20051;-69
2022/07/20 00:03:47;;;;;;;4.55;2.40;;;;;;;28.94;27.30;99708.16;5091062;28;20076;-68
2022/07/20 00:06:14;;;;;;;4.32;1.95;;;;;;;28.90;27.52;99709.63;5090904;28;20507;-68
2022/07/20 00:11:26;;;;;;;2.17;1.88;;;;;;;28.85;28.16;99712.91;5092240;28;20056;-68
2022/07/20 00:13:57;;;;;;;4.07;1.85;;;;;;;28.81;27.88;99711.66;5092094;28;20047;-68
2022/07/20 00:16:26;;;;;;;3.50;2.10;;;;;;;28.78;27.11;99705.84;5090973;28;20408;-68
2022/07/20 00:18:53;;;;;;;4.00;2.05;;;;;;;28.74;27.03;99700.00;5090450;28;20048;-68
2022/07/20 00:21:20;;;;;;;3.40;2.00;;;;;;;28.71;27.01;99705.84;5092039;28;20101;-69
2022/07/20 00:23:47;;;;;;;3.75;1.75;;;;;;;28.68;27.49;99707.09;5090753;28;20067;-68
2022/07/20 00:26:14;;;;;;;7.07;2.20;;;;;;;28.66;27.72;99702.94;5091549;28;20127;-67
2022/07/20 00:28:41;;;;;;;5.25;2.10;;;;;;;28.64;27.56;99705.84;5090329;28;20048;-68
2022/07/20 00:31:08;;;;;;;3.13;2.10;;;;;;;28.63;27.55;99714.19;5090329;28;20060;-69
2022/07/20 00:33:35;;;;;;;3.30;1.73;;;;;;;28.60;27.14;99710.03;5091489;28;20559;-67
2022/07/20 00:36:03;;;;;;;3.90;2.10;;;;;;;28.58;28.09;99702.09;5090217;28;20051;-68
2022/07/20 00:38:30;;;;;;;2.90;1.88;;;;;;;28.57;27.86;99700.44;5090001;28;20044;-69
2022/07/20 00:40:57;;;;;;;4.88;2.33;;;;;;;28.55;27.57;99697.09;5090140;28;20091;-68
2022/07/20 00:43:23;;;;;;;4.82;2.40;;;;;;;28.53;27.92;99695.63;5090349;28;20048;-68
2022/07/20 00:45:50;;;;;;;3.53;1.92;;;;;;;28.50;27.70;99694.19;5091690;28;20052;-68
2022/07/20 00:48:17;;;;;;;2.90;1.80;;;;;;;28.47;27.66;99690.00;5089991;28;20080;-68
2022/07/20 00:50:43;;;;;;;2.55;2.00;;;;;;;28.44;27.48;99690.41;5091126;28;20056;-68
2022/07/20 00:53:10;;;;;;;4.60;2.45;;;;;;;28.43;27.77;99696.88;5090084;28;20504;-68
2022/07/20 00:55:37;;;;;;;2.67;1.80;;;;;;;28.39;27.92;99686.66;5089852;28;20519;-67
2022/07/20 00:58:03;;;;;;;3.95;2.25;;;;;;;28.38;27.52;99690.41;5089762;28;20048;-69
2022/07/20 01:00:30;;;;;;;6.32;2.58;;;;;;;28.33;27.37;99689.16;5091690;28;20488;-68
2022/07/20 01:02:57;;;;;;;2.67;2.08;;;;;;;28.31;27.70;99690.41;5091219;28;20044;-68
2022/07/20 01:05:24;;;;;;;5.03;2.00;;;;;;;28.28;28.03;99686.25;5089978;28;20093;-68
2022/07/20 01:07:51;;;;;;;3.10;2.22;;;;;;;28.27;28.22;99689.16;5089991;28;20066;-69
2022/07/20 01:10:19;;;;;;;3.53;2.00;;;;;;;28.23;27.71;99688.72;5089455;28;20040;-69
2022/07/20 01:12:48;;;;;;;4.13;2.38;;;;;;;28.20;27.78;99687.25;5089931;28;20063;-68
2022/07/20 01:15:16;;;;;;;3.78;2.10;;;;;;;28.19;27.92;99693.69;5089526;28;20101;-67
2022/07/20 01:17:44;;;;;;;2.63;2.30;;;;;;;28.17;28.09;99687.66;5089679;28;20079;-67
2022/07/20 01:20:16;;;;;;;3.97;2.05;;;;;;;28.13;27.91;99683.69;5089539;28;20059;-67
2022/07/20 01:22:44;;;;;;;5.32;2.17;;;;;;;28.13;27.80;99683.69;5089481;28;20040;-68
2022/07/20 01:25:11;;;;;;;1.92;1.77;;;;;;;28.12;27.91;99690.16;5089544;28;20074;-68
2022/07/20 01:27:38;;;;;;;5.00;2.20;;;;;;;28.09;28.40;99679.72;5090668;28;20055;-68
2022/07/20 01:30:05;;;;;;;4.18;2.22;;;;;;;28.07;28.65;99679.13;5089086;28;20040;-69
2022/07/20 01:32:32;;;;;;;4.25;2.20;;;;;;;28.04;28.42;99674.09;5090858;28;20056;-68
2022/07/20 01:34:58;;;;;;;5.93;2.08;;;;;;;28.01;28.85;99669.09;5089561;28;20052;-68
2022/07/20 01:37:25;;;;;;;3.30;2.15;;;;;;;27.98;28.78;99667.63;5088677;28;20405;-68
2022/07/20 01:39:52;;;;;;;8.25;2.10;;;;;;;27.95;28.70;99670.75;5090400;28;20044;-68
2022/07/20 01:42:19;;;;;;;4.68;2.17;;;;;;;27.92;28.74;99661.16;5089205;28;20054;-69
2022/07/20 01:44:45;;;;;;;6.80;2.28;;;;;;;27.90;28.28;99665.13;5090469;28;20151;-68
2022/07/20 01:47:12;;;;;;;3.90;2.15;;;;;;;27.86;29.08;99662.00;5089428;28;20052;-67
2022/07/20 01:49:39;;;;;;;4.45;2.35;;;;;;;27.83;28.55;99659.69;5088877;28;20059;-68
2022/07/20 01:52:05;;;;;;;3.65;2.13;;;;;;;27.79;28.40;99655.72;5090435;28;20492;-68
2022/07/20 01:54:32;;;;;;;3.05;1.98;;;;;;;27.75;28.37;99662.59;5089199;28;20409;-69
2022/07/20 01:56:59;;;;;;;4.72;2.13;;;;;;;27.72;28.92;99653.00;5090396;28;20068;-68
2022/07/20 01:59:25;;;;;;;5.60;2.22;;;;;;;27.71;28.90;99659.47;5089965;28;20051;-68
2022/07/20 02:01:52;;;;;;;3.05;1.98;;;;;;;27.69;29.08;99662.38;5089086;28;20553;-68
2022/07/20 02:04:19;;;;;;;4.50;2.10;;;;;;;27.68;28.39;99657.16;5090216;28;20575;-68
2022/07/20 02:06:47;;;;;;;4.00;1.90;;;;;;;27.68;28.39;99660.69;5090560;28;20044;-68
2022/07/20 02:09:13;;;;;;;2.75;2.00;;;;;;;27.66;28.21;99657.34;5089842;28;20051;-68
2022/07/20 02:11:40;;;;;;;4.57;2.50;;;;;;;27.65;28.33;99655.69;5089230;28;20067;-68
2022/07/20 02:14:06;;;;;;;2.53;1.88;;;;;;;27.66;28.66;99651.94;5090168;28;20055;-67
2022/07/20 02:16:33;;;;;;;3.47;2.42;;;;;;;27.65;28.52;99661.09;5090381;28;20055;-67
2022/07/20 02:19:00;;;;;;;2.25;2.05;;;;;;;27.65;28.57;99655.69;5089864;28;20070;-68
2022/07/20 02:21:29;;;;;;;6.10;2.35;;;;;;;27.65;28.76;99660.25;5088914;28;20052;-67
2022/07/20 02:23:56;;;;;;;4.32;2.20;;;;;;;27.64;28.93;99655.88;5089095;28;20052;-68
2022/07/20 02:26:23;;;;;;;4.80;1.85;;;;;;;27.64;28.46;99655.88;5089265;28;20090;-67
2022/07/20 02:28:50;;;;;;;5.47;2.08;;;;;;;27.61;29.00;99664.41;5088834;28;20047;-67
2022/07/20 02:31:19;;;;;;;5.07;1.73;;;;;;;27.58;28.64;99657.50;5089034;28;20386;-68
2022/07/20 02:33:46;;;;;;;3.15;1.98;;;;;;;27.57;29.05;99669.34;5088956;28;20052;-67
2022/07/20 02:36:13;;;;;;;4.82;1.73;;;;;;;27.55;28.93;99660.63;5090105;28;20047;-67
2022/07/20 02:38:40;;;;;;;3.22;1.90;;;;;;;27.55;29.42;99663.34;5089995;28;20056;-68
2022/07/20 02:41:07;;;;;;;6.57;2.22;;;;;;;27.53;29.28;99663.53;5089888;28;20051;-67
2022/07/20 02:43:34;;;;;;;3.05;1.90;;;;;;;27.52;29.03;99664.56;5090187;28;20067;-68
2022/07/20 02:46:01;;;;;;;3.25;2.03;;;;;;;27.50;28.57;99657.69;5090217;28;20492;-68
2022/07/20 02:48:27;;;;;;;4.18;2.08;;;;;;;27.48;29.41;99657.06;5090533;28;20051;-68
2022/07/20 02:50:54;;;;;;;4.65;2.15;;;;;;;27.46;28.97;99657.25;5092375;28;20055;-69
2022/07/20 02:53:21;;;;;;;2.53;1.90;;;;;;;27.47;28.54;99655.41;5092341;28;20500;-68
2022/07/20 02:55:47;;;;;;;3.45;1.92;;;;;;;27.44;29.22;99654.75;5092563;28;20055;-68
2022/07/20 02:58:14;;;;;;;5.65;1.80;;;;;;;27.44;29.05;99653.94;5093507;28;20506;-68
2022/07/20 03:00:41;;;;;;;3.33;2.08;;;;;;;27.43;28.97;99658.50;5092312;28;20064;-67
2022/07/20 03:03:09;;;;;;;6.13;2.25;;;;;;;27.42;28.61;99661.38;5092393;28;20062;-69
2022/07/20 03:05:36;;;;;;;6.97;2.20;;;;;;;27.41;28.31;99660.56;5092270;28;20411;-67
2022/07/20 03:08:04;;;;;;;5.00;2.15;;;;;;;27.40;28.85;99652.66;5092070;28;20054;-69
2022/07/20 03:10:31;;;;;;;2.35;1.80;;;;;;;27.40;28.41;99661.59;5093135;28;20729;-67
2022/07/20 03:12:58;;;;;;;3.75;2.38;;;;;;;27.40;29.01;99668.88;5093347;28;20063;-67
2022/07/20 03:15:25;;;;;;;3.00;2.10;;;;;;;27.40;29.11;99661.59;5093356;28;20044;-68
2022/07/20 03:17:53;;;;;;;4.95;2.08;;;;;;;27.39;28.84;99661.81;5091965;28;20063;-67
2022/07/20 03:20:31;;;;;;;2.08;1.83;;;;;;;27.39;29.29;99678.03;5092952;28;20062;-67
2022/07/20 03:22:59;;;;;;;4.10;2.10;;;;;;;27.40;29.66;99669.69;5093408;28;20139;-67
2022/07/20 03:25:26;;;;;;;4.22;2.25;;;;;;;27.39;28.93;99678.84;5091975;28;20055;-67
2022/07/20 03:27:57;;;;;;;4.80;2.15;;;;;;;27.35;28.73;99669.47;5093584;28;20055;-68
2022/07/20 03:30:25;;;;;;;3.08;1.85;;;;;;;27.37;29.44;99671.97;5093127;28;20040;-68
2022/07/20 03:32:52;;;;;;;5.32;2.30;;;;;;;27.35;29.02;99672.16;5091678;28;20048;-68
2022/07/20 03:35:18;;;;;;;8.18;2.05;;;;;;;27.34;29.14;99669.66;5092865;28;20056;-68
2022/07/20 03:37:45;;;;;;;4.32;2.00;;;;;;;27.31;29.19;99668.19;5092864;28;20488;-69
2022/07/20 03:40:12;;;;;;;3.67;2.00;;;;;;;27.27;28.92;99670.47;5088702;28;20052;-68
2022/07/20 03:42:39;;;;;;;2.30;1.95;;;;;;;27.26;29.55;99676.06;5091027;28;20162;-68
2022/07/20 03:45:06;;;;;;;3.17;1.98;;;;;;;27.23;29.53;99674.63;5092377;28;20048;-69
2022/07/20 03:47:33;;;;;;;3.35;2.13;;;;;;;27.21;30.00;99679.38;5091602;28;20063;-69
2022/07/20 03:50:00;;;;;;;2.53;2.08;;;;;;;27.19;30.12;99676.03;5091063;28;20068;-68
2022/07/20 03:52:27;;;;;;;6.15;2.28;;;;;;;27.16;29.97;99679.97;5092598;28;20613;-67
2022/07/20 03:54:53;;;;;;;4.75;2.05;;;;;;;27.13;29.96;99680.38;5091082;28;20052;-67
2022/07/20 03:57:20;;;;;;;5.03;2.17;;;;;;;27.10;29.97;99675.34;5091196;28;20052;-68
2022/07/20 03:59:46;;;;;;;5.30;1.98;;;;;;;27.06;30.03;99680.34;5090420;28;20067;-67
2022/07/20 04:02:13;;;;;;;5.75;2.22;;;;;;;27.04;30.03;99678.88;5090765;28;20055;-67
2022/07/20 04:04:45;;;;;;;6.35;2.20;;;;;;;27.02;30.35;99675.53;5086022;28;20059;-67
2022/07/20 04:07:11;;;;;;;3.17;1.98;;;;;;;27.02;30.33;99680.94;5091810;28;20052;-67
2022/07/20 04:09:44;;;;;;;9.52;2.60;;;;;;;27.01;30.30;99677.41;5091913;28;20047;-68
2022/07/20 04:12:22;;;;;;;4.15;2.15;;;;;;;27.01;30.26;99676.56;5092230;28;20545;-68
2022/07/20 04:14:51;;;;;;;4.03;1.85;;;;;;;27.00;30.41;99674.88;5092032;28;20126;-67
2022/07/20 04:17:19;;;;;;;3.25;1.73;;;;;;;27.01;30.41;99679.25;5091951;28;20055;-68
2022/07/20 04:19:46;;;;;;;3.10;1.70;;;;;;;27.00;30.45;99678.44;5090753;28;20051;-67
2022/07/20 04:22:13;;;;;;;3.58;1.98;;;;;;;27.00;30.28;99678.44;5092068;28;20686;-67
2022/07/20 04:24:39;;;;;;;3.58;2.17;;;;;;;27.00;30.52;99677.59;5091737;28;20044;-67
2022/07/20 04:27:06;;;;;;;3.47;2.13;;;;;;;27.00;30.59;99683.00;5091849;28;20086;-67
2022/07/20 04:29:33;;;;;;;3.65;1.90;;;;;;;27.01;31.07;99682.81;5090163;28;20048;-68
2022/07/20 04:32:00;;;;;;;3.67;1.85;;;;;;;27.02;30.94;99678.25;5091986;28;20048;-68
2022/07/20 04:34:27;;;;;;;3.45;1.75;;;;;;;27.03;32.16;99680.72;5091756;28;20518;-68
2022/07/20 04:36:55;;;;;;;5.72;2.00;;;;;;;27.04;31.25;99686.97;5091477;28;20048;-67
2022/07/20 04:39:21;;;;;;;3.00;2.13;;;;;;;27.06;31.38;99682.22;5091324;28;20048;-68
2022/07/20 04:41:48;;;;;;;6.15;2.10;;;;;;;27.07;32.10;99683.88;5091513;28;20093;-68
2022/07/20 04:44:14;;;;;;;3.55;2.00;;;;;;;27.10;31.58;99688.88;5090181;28;20044;-68
2022/07/20 04:46:41;;;;;;;4.38;1.90;;;;;;;27.12;32.06;99688.66;5091460;28;20048;-68
2022/07/20 04:49:08;;;;;;;4.50;2.10;;;;;;;27.13;31.28;99687.66;5091189;28;20071;-68
2022/07/20 04:51:35;;;;;;;3.60;2.00;;;;;;;27.12;32.06;99689.50;5090259;28;20064;-68
2022/07/20 04:54:03;;;;;;;3.45;1.83;;;;;;;27.13;31.73;99687.66;5091330;28;20401;-68
2022/07/20 04:56:29;;;;;;;3.00;2.08;;;;;;;27.14;32.71;99687.44;5091185;28;20496;-68
2022/07/20 04:58:56;;;;;;;5.85;2.47;;;;;;;27.14;31.80;99682.03;5089963;28;20044;-68
2022/07/20 05:01:23;;;;;;;5.20;2.15;;;;;;;27.17;31.78;99689.75;5091474;28;20059;-68
2022/07/20 05:03:51;;;;;;;4.75;1.95;;;;;;;27.19;31.08;99693.09;5090035;28;20105;-68
2022/07/20 05:06:19;;;;;;;9.15;2.30;;;;;;;27.23;32.10;99688.13;5090056;28;20456;-67
2022/07/20 05:08:46;;;;;;;3.58;2.17;;;;;;;27.28;31.52;99684.84;5089548;28;20048;-67
2022/07/20 05:11:13;;;;;;;4.97;2.15;;;;;;;27.32;30.70;99691.47;5089468;28;20052;-68
2022/07/20 05:13:40;;;;;;;5.65;2.20;;;;;;;27.36;30.75;99692.75;5090463;28;20059;-68
2022/07/20 05:16:07;;;;;;;4.10;1.88;;;;;;;27.41;31.35;99692.16;5089677;28;20489;-68
2022/07/20 05:18:34;;;;;;;4.93;2.40;;;;;;;27.45;31.54;99688.88;5090630;28;20055;-72
2022/07/20 05:21:02;;;;;;;2.88;1.98;;;;;;;27.51;31.50;99687.22;5090838;28;20134;-78
2022/07/20 05:23:28;;;;;;;3.50;2.30;;;;;;;27.54;32.36;99689.53;5090806;28;20499;-69
2022/07/20 05:25:55;;;;;;;5.85;2.17;;;;;;;27.58;31.58;99692.66;5090742;28;20048;-67
2022/07/20 05:28:22;;;;;;;3.97;1.90;;;;;;;27.63;31.80;99686.69;5089435;28;20567;-67
2022/07/20 05:30:49;;;;;;;4.00;1.95;;;;;;;27.65;31.53;99696.25;5089419;28;20048;-67
2022/07/20 05:33:16;;;;;;;6.93;2.13;;;;;;;27.67;32.03;99694.19;5089448;28;20060;-68
2022/07/20 05:35:43;;;;;;;6.35;2.08;;;;;;;27.70;32.44;99701.06;5089212;28;20055;-68
2022/07/20 05:38:09;;;;;;;5.90;2.25;;;;;;;27.74;31.62;99691.50;5090347;28;20763;-68
2022/07/20 05:40:36;;;;;;;3.55;2.00;;;;;;;27.78;31.30;99697.34;5089165;28;20579;-68
2022/07/20 05:43:03;;;;;;;4.13;2.25;;;;;;;27.82;30.64;99701.31;5089600;28;20048;-68
2022/07/20 05:45:30;;;;;;;2.17;1.80;;;;;;;27.86;31.29;99713.38;5089263;28;20054;-68
2022/07/20 05:47:56;;;;;;;3.63;2.03;;;;;;;27.93;30.42;99714.25;5089274;28;20063;-68
2022/07/20 05:50:23;;;;;;;3.20;2.22;;;;;;;28.00;31.06;99700.75;5088971;28;20040;-68
2022/07/20 05:52:50;;;;;;;3.22;2.08;;;;;;;28.08;30.76;99729.47;5090461;28;20113;-67
2022/07/20 05:55:17;;;;;;;4.20;2.30;;;;;;;28.17;30.14;99728.25;5089357;28;20056;-68
2022/07/20 05:57:44;;;;;;;3.05;2.58;;;;;;;28.27;30.54;99729.75;5089250;28;20064;-67
2022/07/20 06:00:11;;;;;;;3.90;1.85;;;;;;;28.36;30.71;99720.41;5090088;28;20534;-67
2022/07/20 06:02:38;;;;;;;4.13;1.95;;;;;;;28.47;30.64;99721.66;5090348;28;20060;-67
2022/07/20 06:05:05;;;;;;;4.07;2.03;;;;;;;28.58;30.14;99720.22;5083981;28;20040;-68
2022/07/20 06:07:32;;;;;;;6.43;2.03;;;;;;;28.66;29.91;99730.03;5078335;28;20114;-67
2022/07/20 06:09:59;;;;;;;2.90;1.98;;;;;;;28.74;29.97;99725.22;5090046;28;20044;-67
2022/07/20 06:12:25;;;;;;;2.03;1.80;;;;;;;28.84;29.94;99724.81;5090316;28;20062;-67
2022/07/20 06:14:52;;;;;;;3.47;2.28;;;;;;;28.91;29.29;99727.53;5089061;28;20048;-68
2022/07/20 06:17:18;;;;;;;3.35;2.03;;;;;;;29.00;29.06;99726.28;5090087;28;20059;-67
2022/07/20 06:19:45;;;;;;;3.22;2.17;;;;;;;29.11;28.93;99737.50;5087685;28;20048;-67
2022/07/20 06:22:12;;;;;;;4.25;2.25;;;;;;;29.20;28.90;99733.56;5084046;28;20060;-67
2022/07/20 06:24:38;;;;;;;5.20;2.40;;;;;;;29.31;28.36;99736.66;5091705;28;20047;-68
2022/07/20 06:27:22;;;;;;;8.48;2.33;;;;;;;29.43;28.35;99737.66;5093061;28;20055;-67
2022/07/20 06:29:48;;;;;;;7.18;2.00;;;;;;;29.55;28.42;99737.00;5094114;28;20078;-67
2022/07/20 06:32:15;;;;;;;3.38;1.90;;;;;;;29.65;28.38;99743.66;5093845;28;20385;-68
2022/07/20 06:34:43;;;;;;;2.58;2.13;;;;;;;29.77;28.34;99745.69;5093409;28;20056;-69
2022/07/20 06:37:11;;;;;;;5.22;2.10;;;;;;;29.86;27.94;99744.41;5092614;28;20157;-69
2022/07/20 06:39:38;;;;;;;3.90;2.42;;;;;;;29.97;27.92;99751.03;5092451;28;20547;-70
2022/07/20 06:42:12;;;;;;;4.63;2.20;;;;;;;30.06;27.76;99751.63;5093312;28;20138;-69
2022/07/20 06:44:39;;;;;;;4.57;2.30;;;;;;;30.16;27.60;99759.34;5093545;28;20051;-69
2022/07/20 06:47:05;;;;;;;4.47;2.00;;;;;;;30.24;27.33;99755.53;5094069;28;20056;-69
2022/07/20 06:49:32;;;;;;;4.55;2.08;;;;;;;30.32;27.33;99763.41;5093611;28;20445;-69
2022/07/20 06:52:00;;;;;;;4.07;2.00;;;;;;;30.38;27.45;99762.53;5093875;28;20048;-69
2022/07/20 06:54:27;;;;;;;3.70;2.20;;;;;;;30.45;27.22;99762.47;5092232;28;20737;-69
2022/07/20 06:56:54;;;;;;;2.63;2.00;;;;;;;30.52;27.02;99757.00;5093464;28;20047;-69
2022/07/20 06:59:21;;;;;;;6.25;2.15;;;;;;;30.57;26.99;99757.16;5093182;28;20051;-68
2022/07/20 07:01:48;;;;;;;6.15;2.05;;;;;;;30.62;26.86;99756.53;5092335;28;20044;-69
2022/07/20 07:04:16;;;;;;;4.15;2.42;;;;;;;30.68;26.65;99752.91;5093342;28;20109;-69
2022/07/20 07:06:42;;;;;;;2.30;2.03;;;;;;;30.72;26.38;99758.75;5093571;28;20060;-69
2022/07/20 07:09:09;;;;;;;3.08;2.10;;;;;;;30.76;26.60;99755.38;5092836;28;20052;-68
2022/07/20 07:11:36;;;;;;;3.15;2.15;;;;;;;30.82;26.81;99759.09;5092201;28;20392;-69
2022/07/20 07:14:04;;;;;;;2.88;2.25;;;;;;;30.86;26.38;99760.31;5092782;28;20090;-69
2022/07/20 07:16:31;;;;;;;2.42;1.95;;;;;;;30.91;26.71;99748.81;5092479;28;20135;-69
2022/07/20 07:18:58;;;;;;;3.17;2.30;;;;;;;30.96;27.08;99759.84;5091312;28;20052;-69
2022/07/20 07:21:24;;;;;;;5.50;2.25;;;;;;;31.00;26.67;99752.91;5092065;28;20044;-68
2022/07/20 07:23:51;;;;;;;4.93;2.38;;;;;;;31.05;27.00;99758.50;5092887;28;20496;-68
2022/07/20 07:26:21;;;;;;;2.22;2.00;;;;;;;31.11;26.66;99759.47;5075057;28;20051;-68
2022/07/20 07:28:49;;;;;;;6.13;2.20;;;;;;;31.16;26.93;99754.19;5092616;28;20121;-68
2022/07/20 07:31:17;;;;;;;2.33;2.05;;;;;;;31.20;26.37;99751.84;5091632;28;20089;-68
2022/07/20 07:33:45;;;;;;;2.95;2.28;;;;;;;31.25;26.19;99760.19;5092647;28;20044;-69
2022/07/20 07:36:13;;;;;;;7.25;2.38;;;;;;;31.28;25.80;99748.84;5089538;28;20056;-68
2022/07/20 07:38:39;;;;;;;6.75;2.67;;;;;;;31.33;26.01;99757.19;5092647;28;20079;-67
2022/07/20 07:41:06;;;;;;;4.93;2.40;;;;;;;31.37;25.77;99752.16;5092473;28;20056;-67
2022/07/20 07:43:32;;;;;;;4.60;2.45;;;;;;;31.44;25.71;99754.78;5092472;28;20048;-69
2022/07/20 07:45:59;;;;;;;4.30;2.42;;;;;;;31.49;25.60;99752.22;5092490;28;20582;-69
2022/07/20 07:48:26;;;;;;;4.53;2.65;;;;;;;31.53;25.72;99745.25;5091198;28;20048;-68
2022/07/20 07:50:53;;;;;;;3.55;2.33;;;;;;;31.57;25.53;99743.75;5092183;28;20056;-68
2022/07/20 07:53:19;;;;;;;12.07;3.17;;;;;;;31.63;25.71;99746.63;5090819;28;20504;-69
2022/07/20 07:55:46;;;;;;;4.85;2.78;;;;;;;31.65;25.55;99741.78;5092557;28;20052;-69
2022/07/20 07:58:14;;;;;;;4.82;2.35;;;;;;;31.70;25.98;99736.50;5091097;28;20083;-68
2022/07/20 08:00:41;;;;;;;4.53;2.17;;;;;;;31.75;25.56;99735.78;5092407;28;20044;-68
2022/07/20 08:03:08;;;;;;;3.80;2.50;;;;;;;31.76;25.28;99743.72;5092397;28;20668;-69
2022/07/20 08:05:35;;;;;;;4.32;2.50;;;;;;;31.82;25.41;99742.84;5092191;28;20540;-69
2022/07/20 08:08:07;;;;;;;4.03;2.55;;;;;;;31.84;25.61;99751.59;5091950;28;20054;-69
2022/07/20 08:10:36;;;;;;;5.60;2.25;;;;;;;31.92;25.79;99755.91;5092042;28;20518;-68
2022/07/20 08:13:03;;;;;;;3.28;2.38;;;;;;;32.00;25.80;99764.81;5090806;28;20081;-68
2022/07/20 08:15:30;;;;;;;4.30;2.30;;;;;;;32.05;25.98;99764.97;5092085;28;20044;-69
2022/07/20 08:17:58;;;;;;;6.85;3.03;;;;;;;32.11;25.38;99767.59;5090494;28;20138;-68
2022/07/20 08:20:25;;;;;;;3.83;2.67;;;;;;;32.19;25.70;99765.59;5090770;28;20044;-69
2022/07/20 08:22:52;;;;;;;4.40;2.67;;;;;;;32.24;25.62;99774.75;5091980;28;20055;-69
2022/07/20 08:25:19;;;;;;;4.95;2.72;;;;;;;32.29;25.27;99779.50;5090790;28;20055;-69
2022/07/20 08:27:46;;;;;;;5.60;3.30;;;;;;;32.34;25.49;99776.94;5092067;28;20060;-69
2022/07/20 08:30:13;;;;;;;3.75;2.58;;;;;;;32.39;25.49;99791.75;5090433;28;20059;-68
2022/07/20 08:32:59;;;;;;;6.35;3.08;;;;;;;32.44;25.32;99800.03;5091853;28;20087;-69
2022/07/20 08:35:26;;;;;;;4.40;2.45;;;;;;;32.48;25.37;99809.44;5091788;28;20109;-69
2022/07/20 08:37:53;;;;;;;6.60;3.20;;;;;;;32.50;25.59;99812.75;5091684;28;20496;-69
2022/07/20 08:40:19;;;;;;;4.40;2.95;;;;;;;32.54;25.76;99813.94;5091525;28;20055;-69
2022/07/20 08:42:46;;;;;;;5.60;2.90;;;;;;;32.59;25.70;99813.28;5090353;28;20052;-69
2022/07/20 08:45:12;;;;;;;8.85;2.85;;;;;;;32.63;26.10;99842.53;5091395;28;20056;-69
2022/07/20 08:47:41;;;;;;;5.15;2.72;;;;;;;32.68;25.63;99817.31;5091292;28;20534;-68
2022/07/20 08:50:08;;;;;;;6.57;2.75;;;;;;;32.72;25.78;99821.22;5091244;28;20454;-69
2022/07/20 08:52:34;;;;;;;3.75;2.45;;;;;;;32.76;25.88;99814.25;5091524;28;20048;-70
2022/07/20 08:55:01;;;;;;;4.97;2.63;;;;;;;32.81;26.42;99827.16;5089997;28;20078;-68
2022/07/20 08:57:30;;;;;;;5.28;2.85;;;;;;;32.85;26.24;99820.19;5091305;28;20063;-68
2022/07/20 08:59:57;;;;;;;10.02;3.15;;;;;;;32.91;25.55;99818.41;5089140;28;20481;-69
2022/07/20 09:02:24;;;;;;;5.97;3.25;;;;;;;32.98;26.01;99823.75;5091090;28;20064;-68
2022/07/20 09:04:57;;;;;;;5.75;3.17;;;;;;;33.02;25.57;99830.44;5091461;28;20055;-69
2022/07/20 09:07:40;;;;;;;9.98;3.17;;;;;;;33.06;25.64;99831.63;5091265;28;20052;-69
2022/07/20 09:10:20;;;;;;;10.00;3.10;;;;;;;33.15;25.25;99846.56;5089559;28;20048;-69
2022/07/20 09:12:51;;;;;;;8.20;3.15;;;;;;;33.23;25.13;99841.84;5089671;28;20130;-70
2022/07/20 09:15:39;;;;;;;4.57;3.30;;;;;;;33.25;25.31;99840.53;5090936;28;20109;-69
2022/07/20 09:18:22;;;;;;;6.80;3.58;;;;;;;33.33;25.53;99852.97;5090702;28;20055;-68
2022/07/20 09:20:51;;;;;;;4.82;3.15;;;;;;;33.40;25.94;99847.41;5089682;28;20483;-70
2022/07/20 09:23:47;;;;;;;5.32;3.75;;;;;;;33.41;26.06;99863.53;5089749;28;20188;-68
2022/07/20 09:26:16;;;;;;;5.55;3.75;;;;;;;33.55;25.87;99870.69;5089131;28;20040;-68
2022/07/20 09:28:47;;;;;;;7.30;4.13;;;;;;;33.59;25.82;99864.50;5090534;28;20685;-69
2022/07/20 09:31:21;;;;;;;12.43;4.90;;;;;;;33.65;26.19;99882.69;5089388;28;20419;-69
2022/07/20 09:33:57;;;;;;;6.25;4.90;;;;;;;33.73;26.60;99886.09;5091282;28;20614;-69
2022/07/20 09:36:27;;;;;;;7.18;4.95;;;;;;;33.76;27.01;99888.34;5090985;28;20048;-69
2022/07/20 09:38:54;;;;;;;9.63;5.85;;;;;;;33.82;27.29;99900.22;5089525;28;20055;-69
2022/07/20 09:41:28;;;;;;;12.32;6.95;;;;;;;33.84;28.14;99898.91;5090756;28;20048;-69
2022/07/20 09:43:56;;;;;;;13.70;7.68;;;;;;;33.90;28.79;99906.13;5087434;28;20048;-68
2022/07/20 09:46:26;;;;;;;11.70;7.60;;;;;;;33.95;28.67;99901.84;5085966;28;20725;-68
2022/07/20 09:48:55;;;;;;;13.65;7.47;;;;;;;33.98;29.36;99902.22;5090192;28;20094;-68
2022/07/20 09:51:26;;;;;;;12.25;8.15;;;;;;;34.01;29.31;99904.47;5090450;28;20051;-69
2022/07/20 09:54:05;;;;;;;11.32;8.52;;;;;;;34.05;29.77;99897.44;5090563;28;20084;-69
2022/07/20 09:56:33;;;;;;;10.98;8.25;;;;;;;34.12;30.04;99905.53;5090307;28;20048;-69
2022/07/20 09:59:04;;;;;;;16.30;9.63;;;;;;;34.17;30.33;99902.09;5088199;28;20052;-70
2022/07/20 10:01:34;;;;;;;15.75;9.57;;;;;;;34.23;29.80;99908.50;5090367;28;20044;-69
2022/07/20 10:04:04;;;;;;;14.30;9.45;;;;;;;34.27;29.49;99906.94;5089200;28;20512;-69
2022/07/20 10:06:31;;;;;;;12.00;8.63;;;;;;;34.30;30.48;99892.78;5089017;28;20059;-69
2022/07/20 10:09:00;;;;;;;16.02;9.88;;;;;;;34.32;30.33;99896.09;5089989;28;20036;-68
2022/07/20 10:11:27;;;;;;;13.05;9.80;;;;;;;34.36;30.13;99890.97;5090260;28;20056;-69
2022/07/20 10:13:56;;;;;;;10.45;9.07;;;;;;;34.40;30.33;99895.72;5090408;28;20525;-69
2022/07/20 10:16:46;;;;;;;15.88;9.85;;;;;;;34.44;30.43;99896.91;5090232;28;20071;-69
2022/07/20 10:19:12;;;;;;;10.95;8.75;;;;;;;34.55;30.85;99891.63;5089564;28;20067;-69
2022/07/20 10:21:44;;;;;;;13.43;8.98;;;;;;;34.62;29.83;99907.91;5089278;28;20086;-70
2022/07/20 10:24:31;;;;;;;14.80;8.60;;;;;;;34.65;30.09;99900.03;5089057;28;20055;-69
2022/07/20 10:27:16;;;;;;;11.70;8.55;;;;;;;34.74;29.97;99894.16;5088871;28;20044;-69
2022/07/20 10:29:47;;;;;;;11.77;9.20;;;;;;;34.85;29.50;99886.97;5088508;28;20116;-70
2022/07/20 10:32:16;;;;;;;12.02;9.25;;;;;;;34.90;29.82;99890.63;5089531;28;20048;-69
2022/07/20 10:34:51;;;;;;;11.38;9.63;;;;;;;34.96;29.46;99881.47;5088906;28;20052;-69
2022/07/20 10:37:40;;;;;;;13.73;9.23;;;;;;;35.04;29.34;99887.56;5089718;28;20126;-69
2022/07/20 10:40:24;;;;;;;13.98;8.93;;;;;;;35.13;29.52;99890.75;5088274;28;20071;-70
2022/07/20 10:43:06;;;;;;;12.95;9.27;;;;;;;35.19;29.04;99896.06;5089029;28;20109;-68
2022/07/20 10:45:34;;;;;;;11.27;9.73;;;;;;;35.33;29.45;99893.00;5089968;28;20099;-70
2022/07/20 10:48:12;;;;;;;14.90;8.80;;;;;;;35.40;29.14;99896.41;5088523;28;20628;-69
2022/07/20 10:50:45;;;;;;;11.18;9.30;;;;;;;35.59;29.66;99890.66;5088628;28;20416;-70
2022/07/20 10:53:11;;;;;;;11.80;9.48;;;;;;;35.78;28.91;99899.44;5088893;28;20059;-69
2022/07/20 10:55:42;;;;;;;14.07;9.50;;;;;;;36.02;28.96;99892.91;5089902;28;20048;-69
2022/07/20 10:58:13;;;;;;;11.00;9.18;;;;;;;36.31;28.21;99888.06;5089411;28;20377;-69
2022/07/20 11:00:49;;;;;;;9.80;8.65;;;;;;;36.68;29.15;99878.34;5089737;28;20452;-69
2022/07/20 11:03:25;;;;;;;12.98;9.07;;;;;;;37.13;27.83;99889.13;5088582;28;20063;-69
2022/07/20 11:06:03;;;;;;;10.63;9.27;;;;;;;37.60;27.54;99903.22;5089948;28;20059;-70
2022/07/20 11:08:42;;;;;;;12.40;9.45;;;;;;;38.11;27.04;99910.13;5088203;28;20484;-69
2022/07/20 11:11:20;;;;;;;10.95;9.75;;;;;;;38.56;26.78;99900.34;5091359;28;20415;-68
2022/07/20 11:13:47;;;;;;;13.50;8.48;;;;;;;39.04;26.73;99895.72;5092238;28;20048;-69
2022/07/20 11:16:18;;;;;;;12.50;9.23;;;;;;;39.47;25.88;99899.00;5092135;28;20056;-69
2022/07/20 11:18:46;;;;;;;13.52;8.77;;;;;;;39.88;25.45;99892.59;5091572;28;20123;-70
2022/07/20 11:21:13;;;;;;;14.43;8.45;;;;;;;40.28;25.18;99896.59;5091497;28;20271;-69
2022/07/20 11:23:48;;;;;;;11.57;8.55;;;;;;;40.66;25.31;99899.69;5092630;28;20048;-71
2022/07/20 11:26:18;;;;;;;10.05;8.10;;;;;;;41.03;24.23;99908.53;5092942;28;20058;-69
2022/07/20 11:28:55;;;;;;;13.07;8.85;;;;;;;41.36;23.98;99900.53;5090416;28;20044;-70
2022/07/20 11:31:26;;;;;;;13.07;8.68;;;;;;;41.66;22.96;99895.78;5091843;28;20048;-69
2022/07/20 11:33:55;;;;;;;11.15;8.82;;;;;;;41.91;22.88;99893.03;5092809;28;20048;-69
2022/07/20 11:36:27;;;;;;;10.13;8.23;;;;;;;42.12;22.46;99893.59;5092708;28;20048;-69
2022/07/20 11:39:02;;;;;;;9.27;8.38;;;;;;;42.31;22.24;99901.91;5092712;28;20048;-70
2022/07/20 11:41:28;;;;;;;12.57;8.18;;;;;;;42.52;22.07;99906.34;5091668;28;20048;-69